createdAt,value
2023-01-29T00:01:52.178Z,10.46
2023-01-29T00:04:18.747Z,10.06
2023-01-29T00:06:45.289Z,10.07
2023-01-29T00:09:13.470Z,10.03
2023-01-29T00:11:40.380Z,10.06
2023-01-29T00:14:07.119Z,10.64
2023-01-29T00:16:33.966Z,10.51
2023-01-29T00:19:02.071Z,9.96
2023-01-29T00:21:30.941Z,9.75
2023-01-29T00:23:58.083Z,10.36
2023-01-29T00:26:25.790Z,9.78
2023-01-29T00:28:52.620Z,9.56
2023-01-29T00:31:21.798Z,9.71
2023-01-29T00:33:49.289Z,9.25
2023-01-29T00:36:18.770Z,9.40
2023-01-29T00:38:54.560Z,9.48
2023-01-29T00:41:51.723Z,9.70
2023-01-29T00:44:40.802Z,9.62
2023-01-29T00:47:26.404Z,9.23
2023-01-29T00:50:00.074Z,9.73
2023-01-29T00:52:28.033Z,9.43
2023-01-29T00:54:58.831Z,10.33
2023-01-29T00:57:33.964Z,11.04
2023-01-29T01:00:04.022Z,10.31
2023-01-29T01:02:52.128Z,9.79
2023-01-29T01:05:38.569Z,9.72
2023-01-29T01:08:31.989Z,9.88
2023-01-29T01:11:08.679Z,9.34
2023-01-29T01:13:43.954Z,9.42
2023-01-29T01:16:21.947Z,9.66
2023-01-29T01:18:55.567Z,9.45
2023-01-29T01:21:39.179Z,9.77
2023-01-29T01:24:08.477Z,9.66
2023-01-29T01:26:35.612Z,9.65
2023-01-29T01:29:02.739Z,9.87
2023-01-29T01:31:40.350Z,9.90
2023-01-29T01:34:31.774Z,9.99
2023-01-29T01:37:06.459Z,9.85
2023-01-29T01:39:34.225Z,10.50
2023-01-29T01:42:12.630Z,11.04
2023-01-29T01:45:08.537Z,10.28
2023-01-29T01:47:48.189Z,10.36
2023-01-29T01:50:32.494Z,10.41
2023-01-29T01:53:12.656Z,10.54
2023-01-29T01:55:46.012Z,10.40
2023-01-29T01:58:21.871Z,9.95
2023-01-29T02:00:51.549Z,10.09
2023-01-29T02:03:40.131Z,10.51
2023-01-29T02:06:26.924Z,10.96
2023-01-29T02:09:29.894Z,10.74
2023-01-29T02:11:57.047Z,10.40
2023-01-29T02:14:27.591Z,10.36
2023-01-29T02:16:57.115Z,10.57
2023-01-29T02:19:50.498Z,10.58
2023-01-29T02:22:39.231Z,10.05
2023-01-29T02:25:26.651Z,10.09
2023-01-29T02:28:11.068Z,10.45
2023-01-29T02:31:09.610Z,10.33
2023-01-29T02:34:07.775Z,10.03
2023-01-29T02:37:00.109Z,10.49
2023-01-29T02:39:42.223Z,10.60
2023-01-29T02:42:25.680Z,10.03
2023-01-29T02:45:04.127Z,10.39
2023-01-29T02:47:43.830Z,9.52
2023-01-29T02:50:29.941Z,9.12
2023-01-29T02:53:11.658Z,9.43
2023-01-29T02:55:45.386Z,9.44
2023-01-29T02:58:38.751Z,9.50
2023-01-29T03:01:16.528Z,9.32
2023-01-29T03:03:52.385Z,9.60
2023-01-29T03:06:30.551Z,10.08
2023-01-29T03:09:48.190Z,9.97
2023-01-29T03:12:35.856Z,8.77
2023-01-29T03:15:26.890Z,8.99
2023-01-29T03:18:14.188Z,8.59
2023-01-29T03:20:54.115Z,9.20
2023-01-29T03:23:47.357Z,10.04
2023-01-29T03:26:40.098Z,9.72
2023-01-29T03:29:34.026Z,9.35
2023-01-29T03:32:15.320Z,9.81
2023-01-29T03:34:52.128Z,9.96
2023-01-29T03:37:30.566Z,10.36
2023-01-29T03:40:06.789Z,10.59
2023-01-29T03:42:56.885Z,10.29
2023-01-29T03:45:44.436Z,10.39
2023-01-29T03:48:19.672Z,10.25
2023-01-29T03:51:33.706Z,10.30
2023-01-29T03:54:31.752Z,10.44
2023-01-29T03:57:35.727Z,9.74
2023-01-29T04:00:18.910Z,9.60
2023-01-29T04:03:25.783Z,9.51
2023-01-29T04:06:19.158Z,10.01
2023-01-29T04:09:12.877Z,9.94
2023-01-29T04:11:48.689Z,9.94
2023-01-29T04:14:16.243Z,9.49
2023-01-29T04:16:51.470Z,10.07
2023-01-29T04:19:40.316Z,9.38
2023-01-29T04:22:16.764Z,9.60
2023-01-29T04:24:51.431Z,10.16
2023-01-29T04:28:06.680Z,10.17
2023-01-29T04:30:58.471Z,10.37
2023-01-29T04:33:32.808Z,10.09
2023-01-29T04:36:28.290Z,9.69
2023-01-29T04:39:19.803Z,9.78
2023-01-29T04:42:04.543Z,9.35
2023-01-29T04:44:43.674Z,9.10
2023-01-29T04:47:55.654Z,9.13
2023-01-29T04:50:28.470Z,8.98
2023-01-29T04:53:11.784Z,9.25
2023-01-29T04:55:47.463Z,9.06
2023-01-29T04:58:32.616Z,9.09
2023-01-29T05:01:03.110Z,9.28
2023-01-29T05:03:33.029Z,9.15
2023-01-29T05:06:02.076Z,8.73
2023-01-29T05:08:30.583Z,9.03
2023-01-29T05:10:59.475Z,8.94
2023-01-29T05:13:28.908Z,9.07
2023-01-29T05:16:13.788Z,9.07
2023-01-29T05:18:43.611Z,8.95
2023-01-29T05:21:10.584Z,8.62
2023-01-29T05:23:40.259Z,9.11
2023-01-29T05:26:06.902Z,9.14
2023-01-29T05:28:33.570Z,8.83
2023-01-29T05:31:00.300Z,9.10
2023-01-29T05:33:29.572Z,9.42
2023-01-29T05:35:58.136Z,9.48
2023-01-29T05:38:25.215Z,9.62
2023-01-29T05:40:52.353Z,9.62
2023-01-29T05:43:24.377Z,9.71
2023-01-29T05:45:56.899Z,9.65
2023-01-29T05:48:23.880Z,9.74
2023-01-29T05:50:51.375Z,9.71
2023-01-29T05:53:21.137Z,9.65
2023-01-29T05:55:48.485Z,12.95
2023-01-29T05:58:15.379Z,10.41
2023-01-29T06:00:42.219Z,10.13
2023-01-29T06:03:09.185Z,12.30
2023-01-29T06:05:39.665Z,12.26
2023-01-29T06:08:07.236Z,11.08
2023-01-29T06:11:30.748Z,10.86
2023-01-29T06:13:58.367Z,12.64
2023-01-29T06:16:25.024Z,10.47
2023-01-29T06:18:51.820Z,10.00
2023-01-29T06:21:20.919Z,13.48
2023-01-29T06:23:56.900Z,10.75
2023-01-29T06:26:24.970Z,11.00
2023-01-29T06:28:51.753Z,10.40
2023-01-29T06:31:42.726Z,10.09
2023-01-29T06:34:23.089Z,9.70
2023-01-29T06:36:49.751Z,10.12
2023-01-29T06:39:16.988Z,10.37
2023-01-29T06:41:46.582Z,9.94
2023-01-29T06:44:13.601Z,10.03
2023-01-29T06:46:43.365Z,10.39
2023-01-29T06:49:10.459Z,10.63
2023-01-29T06:51:39.672Z,10.56
2023-01-29T06:54:08.256Z,10.35
2023-01-29T06:56:34.954Z,10.72
2023-01-29T06:59:01.801Z,11.30
2023-01-29T07:01:36.138Z,10.29
2023-01-29T07:04:04.205Z,9.65
2023-01-29T07:06:33.962Z,10.50
2023-01-29T07:09:01.445Z,12.38
2023-01-29T07:11:28.793Z,10.17
2023-01-29T07:13:56.581Z,11.85
2023-01-29T07:16:26.551Z,10.87
2023-01-29T07:19:01.732Z,10.37
2023-01-29T07:21:41.933Z,10.22
2023-01-29T07:24:09.485Z,9.58
2023-01-29T07:26:39.327Z,9.32
2023-01-29T07:29:06.390Z,9.21
2023-01-29T07:31:33.981Z,9.60
2023-01-29T07:34:06.081Z,9.68
2023-01-29T07:36:32.990Z,10.15
2023-01-29T07:39:03.006Z,9.67
2023-01-29T07:41:32.695Z,9.40
2023-01-29T07:44:01.976Z,10.62
2023-01-29T07:46:34.953Z,10.33
2023-01-29T07:49:01.971Z,10.01
2023-01-29T07:51:34.101Z,9.50
2023-01-29T07:54:03.351Z,9.04
2023-01-29T07:56:30.300Z,8.90
2023-01-29T07:59:01.929Z,8.26
2023-01-29T08:01:29.348Z,8.78
2023-01-29T08:03:56.932Z,8.78
2023-01-29T08:06:28.280Z,8.74
2023-01-29T08:08:57.474Z,8.93
2023-01-29T08:11:26.697Z,8.50
2023-01-29T08:13:54.617Z,8.82
2023-01-29T08:16:23.137Z,9.00
2023-01-29T08:18:50.424Z,9.52
2023-01-29T08:21:17.860Z,9.81
2023-01-29T08:23:45.493Z,9.39
2023-01-29T08:26:22.491Z,9.73
2023-01-29T08:28:49.526Z,9.28
2023-01-29T08:31:19.805Z,8.99
2023-01-29T08:33:49.975Z,9.15
2023-01-29T08:36:23.067Z,9.44
2023-01-29T08:38:56.374Z,9.56
2023-01-29T08:41:28.153Z,9.14
2023-01-29T08:44:12.674Z,9.17
2023-01-29T08:46:43.169Z,9.43
2023-01-29T08:49:13.467Z,9.37
2023-01-29T08:51:46.751Z,9.57
2023-01-29T08:54:23.207Z,9.47
2023-01-29T08:57:07.530Z,9.61
2023-01-29T08:59:44.788Z,9.20
2023-01-29T09:02:25.998Z,9.57
2023-01-29T09:04:59.252Z,9.29
2023-01-29T09:07:42.643Z,10.34
2023-01-29T09:10:21.634Z,9.83
2023-01-29T09:12:52.816Z,10.10
2023-01-29T09:15:27.659Z,10.55
2023-01-29T09:20:46.334Z,10.87
2023-01-29T09:23:29.596Z,10.93
2023-01-29T09:26:08.677Z,11.05
2023-01-29T09:28:36.283Z,10.47
2023-01-29T09:31:11.832Z,10.44
2023-01-29T09:34:01.363Z,10.35
2023-01-29T09:36:37.866Z,10.26
2023-01-29T09:39:12.442Z,10.73
2023-01-29T09:42:12.841Z,10.74
2023-01-29T09:45:27.456Z,10.57
2023-01-29T09:48:13.579Z,10.14
2023-01-29T09:50:52.942Z,10.55
2023-01-29T09:53:53.331Z,11.82
2023-01-29T09:56:30.549Z,12.44
2023-01-29T09:59:01.537Z,10.91
2023-01-29T10:01:41.523Z,11.17
2023-01-29T10:04:26.372Z,11.23
2023-01-29T10:07:28.326Z,10.73
2023-01-29T10:10:02.625Z,11.25
2023-01-29T10:13:09.764Z,11.08
2023-01-29T10:16:01.264Z,11.05
2023-01-29T10:18:55.383Z,11.07
2023-01-29T10:22:00.279Z,12.23
2023-01-29T10:24:46.861Z,13.62
2023-01-29T10:27:19.076Z,13.93
2023-01-29T10:29:54.547Z,13.42
2023-01-29T10:32:33.874Z,12.90
2023-01-29T10:35:21.691Z,13.84
2023-01-29T10:38:02.797Z,13.34
2023-01-29T10:40:41.845Z,13.80
2023-01-29T10:43:14.807Z,13.60
2023-01-29T10:45:56.602Z,13.38
2023-01-29T10:48:47.166Z,11.75
2023-01-29T10:51:35.191Z,11.80
2023-01-29T10:54:14.708Z,11.63
2023-01-29T10:56:59.255Z,11.93
2023-01-29T10:59:29.538Z,11.61
2023-01-29T11:02:02.876Z,10.50
2023-01-29T11:04:33.329Z,11.21
2023-01-29T11:07:03.121Z,11.01
2023-01-29T11:10:02.629Z,11.08
2023-01-29T11:12:36.580Z,11.21
2023-01-29T11:15:22.230Z,11.50
2023-01-29T11:18:17.289Z,11.41
2023-01-29T11:21:03.562Z,11.03
2023-01-29T11:24:00.887Z,11.61
2023-01-29T11:26:37.925Z,11.22
2023-01-29T11:29:13.865Z,11.21
2023-01-29T11:31:45.580Z,11.43
2023-01-29T11:34:24.927Z,11.27
2023-01-29T11:40:39.449Z,10.81
2023-01-29T11:43:33.320Z,10.81
2023-01-29T11:46:20.432Z,10.82
2023-01-29T11:48:58.948Z,11.10
2023-01-29T11:51:32.667Z,10.47
2023-01-29T11:54:09.589Z,10.15
2023-01-29T11:56:45.334Z,10.28
2023-01-29T11:59:50.036Z,10.63
2023-01-29T12:02:37.795Z,10.93
2023-01-29T12:05:19.765Z,10.47
2023-01-29T12:07:55.617Z,11.14
2023-01-29T12:10:45.444Z,11.65
2023-01-29T12:13:21.107Z,10.99
2023-01-29T12:16:14.106Z,11.21
2023-01-29T12:18:54.492Z,10.80
2023-01-29T12:21:39.177Z,11.23
2023-01-29T12:24:32.491Z,10.94
2023-01-29T12:27:23.910Z,10.42
2023-01-29T12:30:22.707Z,10.62
2023-01-29T12:32:58.779Z,11.30
2023-01-29T12:35:35.069Z,10.99
2023-01-29T12:38:16.650Z,11.00
2023-01-29T12:40:56.084Z,10.88
2023-01-29T12:43:53.847Z,10.99
2023-01-29T12:46:30.378Z,10.96
2023-01-29T12:49:07.278Z,11.19
2023-01-29T12:51:43.193Z,11.24
2023-01-29T12:54:21.635Z,11.33
2023-01-29T12:56:53.501Z,11.21
2023-01-29T12:59:50.816Z,11.51
2023-01-29T13:02:31.954Z,11.39
2023-01-29T13:05:18.786Z,11.58
2023-01-29T13:08:05.583Z,10.88
2023-01-29T13:10:43.848Z,10.44
2023-01-29T13:13:28.801Z,11.24
2023-01-29T13:16:01.570Z,11.69
2023-01-29T13:18:37.927Z,11.19
2023-01-29T13:21:05.462Z,10.76
2023-01-29T13:23:48.723Z,11.34
2023-01-29T13:26:20.315Z,11.05
2023-01-29T13:28:50.366Z,10.80
2023-01-29T13:31:24.945Z,11.09
2023-01-29T13:34:18.268Z,10.42
2023-01-29T13:36:51.811Z,10.77
2023-01-29T13:39:38.342Z,11.15
2023-01-29T13:42:34.499Z,11.08
2023-01-29T13:45:28.426Z,11.36
2023-01-29T13:48:20.552Z,10.76
2023-01-29T13:50:53.254Z,11.25
2023-01-29T13:53:24.585Z,10.88
2023-01-29T13:55:54.811Z,11.03
2023-01-29T13:58:38.893Z,10.83
2023-01-29T14:01:09.085Z,9.82
2023-01-29T14:04:10.144Z,10.21
2023-01-29T14:06:40.861Z,10.37
2023-01-29T14:09:32.980Z,10.04
2023-01-29T14:12:09.998Z,10.83
2023-01-29T14:14:49.092Z,10.59
2023-01-29T14:17:20.776Z,10.70
2023-01-29T14:19:57.826Z,10.56
2023-01-29T14:22:35.370Z,10.23
2023-01-29T14:25:06.219Z,9.74
2023-01-29T14:27:40.885Z,9.72
2023-01-29T14:30:18.031Z,10.21
2023-01-29T14:32:55.688Z,10.72
2023-01-29T14:35:29.933Z,10.36
2023-01-29T14:38:11.653Z,10.55
2023-01-29T14:41:04.289Z,10.18
2023-01-29T14:43:31.638Z,10.58
2023-01-29T14:46:44.964Z,9.88
2023-01-29T14:49:15.123Z,10.22
2023-01-29T14:51:46.216Z,10.31
2023-01-29T14:54:40.180Z,10.42
2023-01-29T14:57:31.464Z,10.12
2023-01-29T15:00:19.291Z,9.54
2023-01-29T15:03:04.971Z,9.70
2023-01-29T15:05:41.297Z,9.80
2023-01-29T15:08:46.684Z,10.30
2023-01-29T15:11:44.712Z,10.78
2023-01-29T15:14:44.484Z,9.98
2023-01-29T15:17:24.012Z,10.07
2023-01-29T15:20:03.168Z,10.13
2023-01-29T15:22:44.538Z,10.71
2023-01-29T15:25:22.694Z,10.88
2023-01-29T15:28:02.637Z,10.43
2023-01-29T15:30:38.245Z,10.06
2023-01-29T15:33:20.195Z,9.93
2023-01-29T15:35:58.831Z,9.41
2023-01-29T15:38:37.804Z,9.59
2023-01-29T15:41:17.538Z,9.96
2023-01-29T15:44:00.602Z,9.96
2023-01-29T15:46:33.993Z,10.07
2023-01-29T15:49:20.484Z,9.40
2023-01-29T15:52:02.457Z,9.14
2023-01-29T15:54:39.025Z,9.23
2023-01-29T15:57:08.433Z,9.64
2023-01-29T15:59:44.839Z,10.06
2023-01-29T16:02:44.398Z,10.14
2023-01-29T16:05:18.879Z,9.38
2023-01-29T16:07:52.281Z,9.15
2023-01-29T16:10:26.532Z,9.40
2023-01-29T16:12:56.952Z,9.45
2023-01-29T16:15:40.563Z,8.92
2023-01-29T16:18:24.715Z,9.27
2023-01-29T16:21:01.052Z,8.62
2023-01-29T16:23:37.026Z,8.94
2023-01-29T16:26:21.552Z,9.01
2023-01-29T16:28:57.374Z,9.06
2023-01-29T16:31:32.448Z,9.68
2023-01-29T16:34:07.469Z,9.09
2023-01-29T16:36:48.108Z,9.19
2023-01-29T16:39:22.322Z,8.81
2023-01-29T16:42:26.741Z,9.26
2023-01-29T16:44:55.688Z,8.63
2023-01-29T16:47:39.367Z,8.80
2023-01-29T16:50:18.147Z,9.17
2023-01-29T16:53:05.718Z,9.56
2023-01-29T16:55:47.073Z,8.99
2023-01-29T16:58:22.487Z,9.56
2023-01-29T17:01:10.462Z,9.24
2023-01-29T17:03:45.155Z,9.39
2023-01-29T17:06:26.773Z,8.99
2023-01-29T17:08:56.799Z,9.00
2023-01-29T17:11:56.115Z,8.88
2023-01-29T17:14:42.465Z,9.01
2023-01-29T17:17:19.394Z,9.22
2023-01-29T17:19:48.898Z,9.20
2023-01-29T17:22:20.794Z,9.18
2023-01-29T17:24:51.752Z,9.74
2023-01-29T17:27:24.369Z,9.79
2023-01-29T17:29:54.676Z,9.89
2023-01-29T17:32:43.933Z,9.84
2023-01-29T17:35:16.965Z,9.63
2023-01-29T17:37:51.877Z,9.39
2023-01-29T17:41:03.056Z,9.84
2023-01-29T17:43:48.089Z,9.27
2023-01-29T17:46:37.124Z,11.43
2023-01-29T17:49:41.408Z,10.02
2023-01-29T17:52:39.116Z,9.46
2023-01-29T17:55:26.617Z,8.99
2023-01-29T17:58:35.591Z,9.22
2023-01-29T18:02:40.184Z,9.28
2023-01-29T19:19:57.661Z,8.53
2023-01-29T19:40:22.382Z,8.22
2023-01-29T19:43:30.561Z,8.76
2023-01-29T19:46:00.957Z,8.48
2023-01-29T19:48:28.546Z,8.50
2023-01-29T19:50:57.120Z,8.76
2023-01-29T19:53:24.813Z,8.36
2023-01-29T19:55:59.534Z,8.65
2023-01-29T19:58:26.662Z,8.66
2023-01-29T20:01:02.265Z,8.73
2023-01-29T20:03:29.239Z,8.58
2023-01-29T20:06:00.809Z,8.63
2023-01-29T20:08:27.320Z,8.90
2023-01-29T20:10:53.939Z,8.66
2023-01-29T20:13:20.416Z,8.45
2023-01-29T20:15:48.672Z,9.10
2023-01-29T20:18:15.924Z,8.68
2023-01-29T20:20:44.619Z,8.66
2023-01-29T20:23:12.114Z,8.53
2023-01-29T20:25:38.948Z,8.69
2023-01-29T20:28:07.579Z,8.10
2023-01-29T20:30:35.112Z,8.96
2023-01-29T20:33:02.577Z,9.18
2023-01-29T20:35:31.055Z,8.99
2023-01-29T20:37:57.821Z,8.79
2023-01-29T20:40:25.237Z,8.93
2023-01-29T20:42:52.360Z,8.81
2023-01-29T20:45:18.924Z,9.22
2023-01-29T20:47:45.709Z,8.73
2023-01-29T20:50:15.342Z,8.64
2023-01-29T20:52:42.467Z,8.26
2023-01-29T20:55:11.539Z,8.62
2023-01-29T20:57:39.365Z,8.74
2023-01-29T21:00:07.906Z,8.60
2023-01-29T21:02:34.643Z,9.32
2023-01-29T21:05:01.150Z,10.54
2023-01-29T21:07:28.008Z,12.18
2023-01-29T21:09:54.547Z,10.76
2023-01-29T21:12:21.035Z,9.84
2023-01-29T21:14:47.516Z,9.07
2023-01-29T21:17:14.123Z,9.21
2023-01-29T21:19:40.626Z,9.25
2023-01-29T21:22:07.139Z,9.09
2023-01-29T21:24:33.677Z,9.00
2023-01-29T21:27:00.191Z,9.32
2023-01-29T21:29:26.934Z,9.04
2023-01-29T21:31:53.787Z,9.20
2023-01-29T21:34:20.329Z,9.91
2023-01-29T21:36:46.843Z,10.33
2023-01-29T21:39:16.547Z,9.35
2023-01-29T21:42:07.282Z,11.15
2023-01-29T21:44:34.924Z,10.47
2023-01-29T21:47:12.061Z,10.25
2023-01-29T21:49:40.397Z,10.11
2023-01-29T21:52:07.710Z,10.23
2023-01-29T21:54:35.527Z,10.11
2023-01-29T21:57:07.424Z,10.12
2023-01-29T21:59:34.690Z,9.60
2023-01-29T22:02:01.626Z,9.22
2023-01-29T22:04:28.774Z,9.05
2023-01-29T22:06:56.041Z,9.08
2023-01-29T22:09:22.677Z,10.00
2023-01-29T22:11:49.748Z,9.45
2023-01-29T22:14:18.415Z,9.32
2023-01-29T22:16:45.940Z,11.08
2023-01-29T22:19:13.570Z,10.56
2023-01-29T22:21:40.616Z,11.39
2023-01-29T22:24:07.924Z,10.89
2023-01-29T22:26:35.626Z,10.03
2023-01-29T22:29:02.655Z,11.63
2023-01-29T22:31:29.179Z,10.44
2023-01-29T22:33:55.735Z,12.30
2023-01-29T22:36:22.271Z,10.25
2023-01-29T22:38:48.847Z,11.26
2023-01-29T22:41:15.486Z,10.21
2023-01-29T22:43:43.806Z,10.63
2023-01-29T22:46:11.736Z,9.94
2023-01-29T22:48:38.262Z,9.58
2023-01-29T22:51:11.720Z,10.18
2023-01-29T22:53:43.090Z,11.40
2023-01-29T22:56:11.262Z,10.47
2023-01-29T22:58:37.812Z,9.92
2023-01-29T23:01:04.870Z,10.22
2023-01-29T23:03:31.395Z,10.42
2023-01-29T23:05:57.951Z,10.26
2023-01-29T23:08:24.577Z,10.61
2023-01-29T23:10:51.363Z,10.25
2023-01-29T23:13:18.016Z,10.22
2023-01-29T23:15:44.674Z,10.17
2023-01-29T23:18:11.292Z,10.79
2023-01-29T23:20:38.780Z,9.97
2023-01-29T23:23:05.349Z,9.78
2023-01-29T23:25:50.320Z,9.99
2023-01-29T23:28:16.820Z,9.85
2023-01-29T23:30:45.109Z,9.71
2023-01-29T23:33:12.227Z,10.03
2023-01-29T23:35:38.930Z,10.21
2023-01-29T23:38:05.430Z,9.72
2023-01-29T23:40:31.928Z,9.83
2023-01-29T23:42:58.466Z,10.46
2023-01-29T23:45:24.941Z,10.32
2023-01-29T23:47:51.468Z,9.82
2023-01-29T23:50:18.454Z,9.92
2023-01-29T23:52:45.230Z,10.37
2023-01-29T23:55:11.752Z,10.29
2023-01-29T23:57:38.260Z,10.07
